Walden, New York
Current Conditions -  °F | °C
As of 3:54 PM on Friday 31 Oct 2014 (Local Time) from KMGJ Reporting Station
Few Clouds Few Clouds  
Wind Chill: 51°   Ceiling: Unl
Heat Index: 51°   Visibility: 10mi
Dew Point: 34°   Wind: 7mph
Humidity: 52%   Direction: 40°NE
Pressure: 29.9"   Gusts: NA
Location:  41.56°N, 74.19°W
Report Text: KMGJ 311954Z AUTO 04006KT 10SM FEW055 11/01 A2990 RMK AO2 SLP127 T01060011 TSNO $
Loading
Personal Weather Stations






























Interactive Weather Map
Tropical Storm Tracking
New forecast layout! Learn more

10-Day Weather Forecast

Advertisements
Track Severe Weather on mobile